Time;durP1;ratioP1;P1;durP2;ratioP2;P2;SDS_P1;SDS_P2;PMS_P1;PMS_P2;Temp;Humidity;BMP_temperature;BMP_pressure;BME280_temperature;BME280_humidity;BME280_pressure;Samples;Min_cycle;Max_cycle;Signal;HPM_P1;HPM_P2
2023/10/22 00:02:16;;;;;;;4.68;1.58;;;11.90;97.50;;;;;;5029534;28;20045;-84
2023/10/22 00:04:41;;;;;;;4.63;1.48;;;11.90;96.30;;;;;;5029894;28;20096;-84
2023/10/22 00:07:07;;;;;;;5.60;1.77;;;11.80;97.70;;;;;;5045987;28;20480;-85
2023/10/22 00:09:34;;;;;;;3.63;1.35;;;11.90;98.00;;;;;;5030158;28;20050;-84
2023/10/22 00:11:59;;;;;;;4.43;2.33;;;11.80;97.40;;;;;;5014173;28;20075;-85
2023/10/22 00:14:25;;;;;;;6.72;1.60;;;11.90;97.30;;;;;;5029544;28;20042;-84
2023/10/22 00:16:51;;;;;;;5.00;1.30;;;11.90;97.40;;;;;;5013370;28;20046;-84
2023/10/22 00:19:17;;;;;;;3.37;1.47;;;11.90;96.60;;;;;;5046194;28;20279;-84
2023/10/22 00:21:42;;;;;;;4.80;1.40;;;12.00;95.40;;;;;;5029242;28;20113;-84
2023/10/22 00:24:09;;;;;;;2.67;1.52;;;11.90;96.20;;;;;;5013995;28;20049;-84
2023/10/22 00:26:34;;;;;;;7.78;1.52;;;11.90;96.10;;;;;;5029322;28;20046;-84
2023/10/22 00:29:00;;;;;;;4.80;1.57;;;12.00;94.50;;;;;;5012694;28;20053;-85
2023/10/22 00:31:26;;;;;;;4.63;1.40;;;12.00;94.90;;;;;;5013332;28;20073;-84
2023/10/22 00:33:52;;;;;;;5.47;1.60;;;12.00;94.90;;;;;;5045218;28;20085;-84
2023/10/22 00:36:18;;;;;;;4.17;1.17;;;12.00;93.20;;;;;;5028892;28;20057;-84
2023/10/22 00:38:43;;;;;;;3.17;1.17;;;12.00;93.90;;;;;;5029349;28;20042;-84
2023/10/22 00:41:09;;;;;;;4.77;1.63;;;12.20;92.10;;;;;;5028389;28;20045;-86
2023/10/22 00:43:35;;;;;;;2.83;1.50;;;12.20;92.60;;;;;;5045879;28;20391;-84
2023/10/22 00:46:02;;;;;;;3.88;2.17;;;12.20;92.90;;;;;;5013722;28;20080;-93
2023/10/22 00:48:29;;;;;;;3.97;1.33;;;12.20;94.80;;;;;;5028856;28;20514;-84
2023/10/22 00:50:56;;;;;;;3.80;1.25;;;12.20;93.30;;;;;;5045710;28;20108;-83
2023/10/22 00:53:27;;;;;;;6.10;1.30;;;12.20;94.20;;;;;;5028788;28;20245;-84
2023/10/22 00:55:53;;;;;;;2.78;1.38;;;12.30;93.40;;;;;;5045632;28;20458;-84
2023/10/22 00:58:20;;;;;;;11.20;1.85;;;12.30;94.30;;;;;;5028886;28;20053;-85
2023/10/22 01:00:46;;;;;;;;;;;12.30;93.10;;;;;;5013955;28;20041;-85
2023/10/22 01:03:12;;;;;;;4.50;1.15;;;12.30;37.70;;;;;;5028718;28;20326;-85
2023/10/22 01:05:38;;;;;;;5.70;1.58;;;12.30;92.70;;;;;;5013194;28;20042;-85
2023/10/22 01:08:08;;;;;;;2.67;0.90;;;12.30;93.50;;;;;;5045543;28;20062;-85
2023/10/22 01:10:33;;;;;;;4.45;1.20;;;12.40;93.40;;;;;;5045485;28;20077;-85
2023/10/22 01:13:03;;;;;;;1.83;1.17;;;12.40;93.30;;;;;;5028609;28;20484;-85
2023/10/22 01:15:29;;;;;;;1.48;1.00;;;12.40;93.40;;;;;;5045054;28;20061;-85
2023/10/22 01:17:55;;;;;;;2.00;1.67;;;12.40;95.50;;;;;;5012414;28;20054;-85
2023/10/22 01:20:21;;;;;;;3.75;1.00;;;12.30;95.50;;;;;;5044826;28;20054;-85
2023/10/22 01:22:47;;;;;;;5.75;1.02;;;12.30;96.40;;;;;;5028227;28;20496;-85
2023/10/22 01:25:13;;;;;;;4.57;1.42;;;12.30;95.60;;;;;;5013076;28;20048;-85
2023/10/22 01:27:39;;;;;;;1.90;0.70;;;12.30;96.80;;;;;;5028422;28;20048;-85
2023/10/22 01:30:05;;;;;;;7.20;2.83;;;12.20;97.50;;;;;;5028443;28;20049;-85
2023/10/22 01:32:31;;;;;;;2.58;1.10;;;12.20;97.40;;;;;;5028490;28;20463;-85
2023/10/22 01:35:00;;;;;;;4.27;1.87;;;12.20;97.10;;;;;;5028522;28;20085;-84
2023/10/22 01:37:28;;;;;;;4.55;1.52;;;12.20;97.40;;;;;;5044885;28;20058;-85
2023/10/22 01:39:54;;;;;;;3.42;1.33;;;12.10;99.90;;;;;;5012758;28;20550;-85
2023/10/22 01:42:20;;;;;;;4.00;1.67;;;12.00;99.90;;;;;;5027925;28;20128;-85
2023/10/22 01:44:46;;;;;;;5.53;1.33;;;11.90;99.90;;;;;;5013505;28;20281;-85
2023/10/22 01:47:11;;;;;;;5.80;2.08;;;11.90;99.90;;;;;;5032109;28;20447;-85
2023/10/22 01:49:38;;;;;;;1.93;1.00;;;11.90;99.90;;;;;;5017221;28;20054;-85
2023/10/22 01:52:05;;;;;;;1.60;1.30;;;11.80;99.90;;;;;;5016639;28;20049;-85
2023/10/22 01:54:31;;;;;;;4.77;1.53;;;11.90;99.90;;;;;;5016324;28;20053;-84
2023/10/22 01:56:57;;;;;;;4.50;1.60;;;11.90;99.90;;;;;;5032082;28;20328;-84
2023/10/22 01:59:25;;;;;;;3.72;1.13;;;11.40;99.90;;;;;;5016410;28;20050;-84
2023/10/22 02:01:50;;;;;;;4.82;1.25;;;11.80;99.90;;;;;;5016400;28;20081;-85
2023/10/22 02:04:16;;;;;;;3.60;1.30;;;12.60;99.90;;;;;;5015300;28;20085;-85
2023/10/22 02:06:43;;;;;;;3.80;1.53;;;11.80;99.90;;;;;;5032066;28;20046;-85
2023/10/22 02:09:08;;;;;;;;;;;11.70;99.90;;;;;;5048783;28;20526;-85
2023/10/22 02:11:34;;;;;;;7.75;2.00;;;11.50;99.90;;;;;;5031678;28;19968;-84
2023/10/22 02:14:00;;;;;;;2.60;1.50;;;11.60;99.90;;;;;;5048795;28;20076;-84
2023/10/22 02:16:25;;;;;;;3.83;2.53;;;11.60;99.90;;;;;;5015130;28;20476;-85
2023/10/22 02:18:51;;;;;;;4.90;2.17;;;11.50;99.90;;;;;;5031630;28;20106;-84
2023/10/22 02:21:19;;;;;;;2.87;2.20;;;11.50;99.90;;;;;;5014592;28;20046;-84
2023/10/22 02:23:45;;;;;;;6.10;2.85;;;11.50;99.90;;;;;;5031891;28;20057;-84
2023/10/22 02:26:10;;;;;;;5.63;2.80;;;11.40;99.90;;;;;;5031675;28;20049;-85
2023/10/22 02:28:36;;;;;;;3.77;2.17;;;11.40;99.90;;;;;;5031053;28;20052;-84
2023/10/22 02:31:04;;;;;;;7.80;2.37;;;11.40;99.90;;;;;;5048437;28;20050;-84
2023/10/22 02:33:29;;;;;;;6.70;3.15;;;11.30;99.90;;;;;;5031060;28;20042;-84
2023/10/22 02:35:55;;;;;;;6.37;2.70;;;11.30;99.90;;;;;;5031589;28;20046;-84
2023/10/22 02:38:21;;;;;;;5.47;2.10;;;11.30;99.90;;;;;;5031272;28;20042;-85
2023/10/22 02:40:50;;;;;;;6.30;2.23;;;11.30;99.90;;;;;;5031157;28;20042;-84
2023/10/22 02:43:16;;;;;;;2.25;1.80;;;11.20;99.90;;;;;;5031370;28;20042;-84
2023/10/22 02:45:55;;;;;;;2.78;1.67;;;11.20;99.90;;;;;;5047790;28;20061;-84
2023/10/22 02:48:23;;;;;;;3.97;2.45;;;11.20;99.90;;;;;;5030997;28;20415;-84
2023/10/22 02:50:48;;;;;;;5.85;2.50;;;11.20;99.90;;;;;;5031248;28;20060;-84
2023/10/22 02:53:14;;;;;;;10.03;2.33;;;11.20;99.90;;;;;;5031179;28;20050;-84
2023/10/22 02:55:40;;;;;;;3.83;1.90;;;11.20;99.90;;;;;;5046904;28;20068;-84
2023/10/22 02:58:06;;;;;;;7.00;2.80;;;11.20;99.90;;;;;;5015766;28;20165;-84
2023/10/22 03:00:35;;;;;;;3.20;1.92;;;11.20;99.90;;;;;;5030627;28;20130;-84
2023/10/22 03:03:02;;;;;;;6.03;2.08;;;11.20;99.90;;;;;;5014552;28;20046;-84
2023/10/22 03:05:32;;;;;;;2.60;1.63;;;11.20;99.90;;;;;;5015577;28;20078;-84
2023/10/22 03:07:57;;;;;;;3.03;1.95;;;11.20;99.90;;;;;;5014225;28;20100;-84
2023/10/22 03:10:23;;;;;;;5.80;2.27;;;11.30;99.90;;;;;;5030402;28;20042;-85
2023/10/22 03:12:49;;;;;;;3.87;2.33;;;11.30;99.90;;;;;;5031112;28;20053;-84
2023/10/22 03:15:14;;;;;;;4.53;1.80;;;11.30;99.90;;;;;;5030894;28;20050;-84
2023/10/22 03:17:40;;;;;;;5.00;2.13;;;11.30;99.90;;;;;;5047253;28;20164;-84
2023/10/22 03:20:06;;;;;;;2.80;1.80;;;11.30;99.90;;;;;;5030825;28;20484;-84
2023/10/22 03:22:32;;;;;;;4.22;1.80;;;11.30;99.90;;;;;;5030331;28;20046;-85
2023/10/22 03:24:58;;;;;;;5.83;2.10;;;11.30;99.90;;;;;;5047330;28;20103;-84
2023/10/22 03:27:25;;;;;;;4.33;1.73;;;11.30;99.90;;;;;;5030690;28;20057;-93
2023/10/22 03:29:50;;;;;;;;;;;11.30;99.90;;;;;;5047724;28;20038;-84
2023/10/22 03:32:16;;;;;;;3.78;1.80;;;11.30;99.90;;;;;;5047223;28;19975;-84
2023/10/22 03:34:41;;;;;;;2.10;1.67;;;11.30;99.90;;;;;;5013464;28;20076;-85
2023/10/22 03:37:08;;;;;;;3.30;2.90;;;11.30;99.90;;;;;;5030290;28;20050;-84
2023/10/22 03:39:37;;;;;;;1.67;1.50;;;11.30;99.90;;;;;;5030278;28;20081;-83
2023/10/22 03:42:03;;;;;;;1.38;1.27;;;11.40;99.90;;;;;;5030196;28;20078;-83
2023/10/22 03:44:29;;;;;;;2.40;2.13;;;11.40;99.90;;;;;;5046782;28;20139;-84
2023/10/22 03:46:55;;;;;;;7.05;2.05;;;11.40;99.90;;;;;;5014845;28;20088;-83
2023/10/22 03:49:21;;;;;;;3.03;1.90;;;11.40;99.90;;;;;;5013569;28;20065;-83
2023/10/22 03:51:46;;;;;;;4.57;2.00;;;11.40;99.90;;;;;;5013356;28;20127;-83
2023/10/22 03:54:12;;;;;;;4.63;2.20;;;11.40;99.90;;;;;;5029695;28;20081;-83
2023/10/22 03:56:38;;;;;;;3.50;1.63;;;11.40;99.90;;;;;;5029940;28;20050;-83
2023/10/22 03:59:03;;;;;;;2.13;1.70;;;11.40;99.90;;;;;;5046811;28;20050;-83
2023/10/22 04:01:29;;;;;;;2.63;1.60;;;11.40;99.90;;;;;;5029574;28;20046;-84
2023/10/22 04:03:55;;;;;;;4.27;1.97;;;11.40;99.90;;;;;;5029783;28;20081;-83
2023/10/22 04:06:21;;;;;;;3.73;2.47;;;11.40;99.90;;;;;;5046627;28;20042;-83
2023/10/22 04:08:46;;;;;;;2.87;2.00;;;11.40;99.90;;;;;;5013351;28;20046;-83
2023/10/22 04:11:12;;;;;;;4.80;2.77;;;11.30;99.90;;;;;;5046477;28;20132;-83
2023/10/22 04:13:38;;;;;;;2.20;2.00;;;11.40;99.90;;;;;;5029518;28;20046;-83
2023/10/22 04:16:04;;;;;;;4.93;2.30;;;11.30;99.90;;;;;;5029660;28;20119;-83
2023/10/22 04:18:29;;;;;;;2.38;2.17;;;11.30;99.90;;;;;;5046032;28;20132;-83
2023/10/22 04:20:55;;;;;;;3.20;2.17;;;11.30;99.90;;;;;;5012839;28;20042;-82
2023/10/22 04:23:21;;;;;;;7.63;2.40;;;11.30;99.90;;;;;;5029050;28;20380;-83
2023/10/22 04:25:47;;;;;;;2.77;2.33;;;11.30;99.90;;;;;;5013734;28;20049;-83
2023/10/22 04:28:13;;;;;;;2.78;2.00;;;11.30;99.90;;;;;;5013109;28;20050;-82
2023/10/22 04:30:40;;;;;;;4.65;1.85;;;11.30;99.90;;;;;;5013690;28;20499;-83
2023/10/22 04:33:07;;;;;;;2.95;2.50;;;11.30;99.90;;;;;;5013761;28;20511;-83
2023/10/22 04:35:34;;;;;;;3.50;2.80;;;11.30;99.90;;;;;;5029301;28;20061;-91
2023/10/22 04:38:01;;;;;;;3.22;2.10;;;11.30;99.90;;;;;;5014012;28;20081;-82
2023/10/22 04:40:34;;;;;;;2.95;2.05;;;11.30;99.90;;;;;;5045576;28;20057;-83
2023/10/22 04:43:01;;;;;;;3.70;2.17;;;11.30;99.90;;;;;;5029401;28;20049;-83
2023/10/22 04:45:27;;;;;;;3.20;2.50;;;11.30;99.90;;;;;;5045907;28;20055;-83
2023/10/22 04:47:55;;;;;;;2.40;2.20;;;11.30;99.90;;;;;;5045324;28;20065;-83
2023/10/22 04:50:21;;;;;;;5.63;3.20;;;11.30;99.90;;;;;;5013844;28;20054;-83
2023/10/22 04:52:47;;;;;;;3.05;2.28;;;11.30;99.90;;;;;;5028791;28;20128;-83
2023/10/22 04:55:13;;;;;;;3.03;2.33;;;11.30;99.90;;;;;;5045397;28;20138;-83
2023/10/22 04:57:39;;;;;;;3.30;2.50;;;11.30;99.90;;;;;;5013204;28;20050;-84
2023/10/22 05:00:09;;;;;;;3.70;3.40;;;11.30;99.90;;;;;;5012595;28;20347;-83
2023/10/22 05:02:36;;;;;;;4.72;3.17;;;11.40;99.90;;;;;;5028536;28;20058;-83
2023/10/22 05:05:02;;;;;;;3.17;2.78;;;11.30;99.90;;;;;;5028452;28;20061;-83
2023/10/22 05:07:28;;;;;;;3.10;2.72;;;11.30;99.90;;;;;;5045327;28;20046;-83
2023/10/22 05:09:54;;;;;;;5.17;2.93;;;11.30;99.90;;;;;;5028576;28;20050;-84
2023/10/22 05:12:19;;;;;;;3.93;3.40;;;11.30;99.90;;;;;;5045463;28;20328;-83
2023/10/22 05:14:45;;;;;;;4.90;3.37;;;11.30;99.90;;;;;;5028617;28;20054;-84
2023/10/22 05:17:11;;;;;;;4.47;2.90;;;11.30;99.90;;;;;;5028775;28;20058;-83
2023/10/22 05:19:36;;;;;;;3.27;2.97;;;11.40;99.90;;;;;;5028652;28;20056;-83
2023/10/22 05:22:04;;;;;;;3.77;3.37;;;11.40;99.90;;;;;;5028202;28;20100;-83
2023/10/22 05:24:30;;;;;;;4.07;3.33;;;11.40;99.90;;;;;;5045596;28;20054;-83
2023/10/22 05:26:56;;;;;;;4.72;3.83;;;11.40;99.90;;;;;;5045040;28;20369;-83
2023/10/22 05:29:22;;;;;;;3.33;3.03;;;11.40;99.90;;;;;;5028805;28;20054;-83
2023/10/22 05:31:49;;;;;;;3.67;3.37;;;11.40;99.90;;;;;;5012927;28;20324;-83
2023/10/22 05:34:14;;;;;;;;;;;11.40;99.90;;;;;;5013581;28;20129;-83
2023/10/22 05:36:40;;;;;;;4.13;3.50;;;11.40;99.90;;;;;;5013164;28;19973;-83
2023/10/22 05:39:09;;;;;;;4.03;3.57;;;11.40;99.90;;;;;;5028254;28;20403;-83
2023/10/22 05:41:35;;;;;;;5.43;3.67;;;11.50;99.90;;;;;;5028274;28;20365;-83
2023/10/22 05:44:05;;;;;;;4.73;4.33;;;11.40;99.90;;;;;;5011601;28;20048;-83
2023/10/22 05:46:32;;;;;;;5.22;3.88;;;11.50;99.90;;;;;;5012303;28;20050;-83
2023/10/22 05:48:59;;;;;;;4.78;4.15;;;11.50;99.90;;;;;;5012356;28;20069;-83
2023/10/22 05:51:25;;;;;;;4.28;3.88;;;11.50;99.90;;;;;;5045113;28;20502;-83
2023/10/22 05:53:51;;;;;;;4.25;3.35;;;11.50;99.90;;;;;;5028108;28;20480;-83
2023/10/22 05:56:17;;;;;;;4.68;2.80;;;11.60;99.90;;;;;;5028468;28;20503;-83
2023/10/22 05:58:43;;;;;;;2.38;2.17;;;11.60;99.90;;;;;;5028605;28;20081;-83
2023/10/22 06:01:09;;;;;;;2.70;1.90;;;11.60;99.90;;;;;;5012598;28;20049;-82
2023/10/22 06:03:35;;;;;;;1.85;1.73;;;11.60;99.90;;;;;;5028387;28;20042;-82
2023/10/22 06:06:01;;;;;;;0.95;0.95;;;11.70;99.90;;;;;;5012270;28;20502;-82
2023/10/22 06:08:27;;;;;;;2.13;1.37;;;11.70;99.90;;;;;;5028641;28;20053;-82
2023/10/22 06:10:53;;;;;;;5.00;1.57;;;11.70;99.90;;;;;;5027745;28;20050;-83
2023/10/22 06:13:19;;;;;;;4.97;1.40;;;11.70;99.90;;;;;;5028108;28;20301;-82
2023/10/22 06:15:45;;;;;;;1.55;1.10;;;10.80;99.90;;;;;;5012466;28;20045;-82
2023/10/22 06:18:11;;;;;;;2.33;1.10;;;11.70;99.90;;;;;;5012501;28;20407;-82
2023/10/22 06:20:38;;;;;;;1.45;1.00;;;11.70;99.90;;;;;;5012715;28;20419;-82
2023/10/22 06:23:04;;;;;;;2.33;1.25;;;11.70;99.90;;;;;;5044617;28;20084;-82
2023/10/22 06:25:34;;;;;;;3.05;1.30;;;11.60;99.90;;;;;;5027844;28;20480;-82
2023/10/22 06:28:01;;;;;;;3.15;1.60;;;11.50;99.90;;;;;;5043913;28;20479;-83
2023/10/22 06:30:28;;;;;;;3.38;1.60;;;11.50;99.90;;;;;;5044705;28;20089;-83
2023/10/22 06:32:58;;;;;;;6.82;2.00;;;11.40;99.90;;;;;;5031297;28;20480;-83
2023/10/22 06:35:27;;;;;;;3.92;1.67;;;11.30;99.90;;;;;;5031924;28;20096;-83
2023/10/22 06:37:53;;;;;;;6.88;1.58;;;11.30;99.90;;;;;;5031152;28;20049;-84
2023/10/22 06:40:20;;;;;;;3.20;2.30;;;11.20;99.90;;;;;;5048269;28;20480;-83
2023/10/22 06:42:48;;;;;;;5.18;2.08;;;11.20;99.90;;;;;;5014948;28;20107;-83
2023/10/22 06:45:15;;;;;;;9.65;3.10;;;11.20;99.90;;;;;;5015741;28;20049;-84
2023/10/22 06:47:41;;;;;;;8.15;2.35;;;11.20;99.90;;;;;;5014501;28;20053;-83
2023/10/22 06:50:09;;;;;;;3.37;1.90;;;11.20;99.90;;;;;;5030984;28;20058;-84
2023/10/22 06:52:36;;;;;;;4.35;2.90;;;11.20;99.90;;;;;;5031422;28;20057;-83
2023/10/22 06:55:02;;;;;;;;;;;11.20;99.90;;;;;;5031058;28;20125;-83
2023/10/22 06:57:28;;;;;;;7.95;2.30;;;11.20;99.90;;;;;;5031284;28;19921;-83
2023/10/22 06:59:56;;;;;;;4.68;2.78;;;11.20;99.90;;;;;;5047831;28;20045;-93
2023/10/22 07:02:23;;;;;;;6.82;2.40;;;11.20;99.90;;;;;;5015846;28;20042;-83
2023/10/22 07:04:52;;;;;;;;;;;11.20;99.90;;;;;;5048156;28;20064;-84
2023/10/22 07:07:18;;;;;;;5.50;2.50;;;11.20;99.90;;;;;;5015570;28;19921;-83
2023/10/22 07:09:44;;;;;;;6.27;2.33;;;11.20;99.90;;;;;;5031298;28;20141;-84
2023/10/22 07:12:10;;;;;;;5.57;2.20;;;11.20;99.90;;;;;;5047293;28;20351;-83
2023/10/22 07:14:36;;;;;;;3.60;2.30;;;11.20;99.90;;;;;;5015812;28;20050;-83
2023/10/22 07:17:02;;;;;;;4.57;2.80;;;11.10;99.90;;;;;;5015359;28;20057;-84
2023/10/22 07:19:27;;;;;;;5.53;2.83;;;11.10;99.90;;;;;;5014470;28;20104;-83
2023/10/22 07:21:53;;;;;;;3.00;2.47;;;11.10;99.90;;;;;;5047390;28;20046;-84
2023/10/22 07:24:19;;;;;;;4.30;3.00;;;11.10;99.90;;;;;;5015086;28;20053;-84
2023/10/22 07:26:44;;;;;;;6.20;3.30;;;11.10;99.90;;;;;;5047641;28;20187;-83
2023/10/22 07:29:12;;;;;;;6.93;3.30;;;11.00;99.90;;;;;;5030356;28;20045;-84
2023/10/22 07:31:38;;;;;;;5.07;3.58;;;11.10;99.90;;;;;;5030463;28;20193;-84
2023/10/22 07:34:04;;;;;;;7.80;3.97;;;11.00;99.90;;;;;;5030465;28;20049;-84
2023/10/22 07:36:30;;;;;;;8.57;4.18;;;11.00;99.90;;;;;;5015188;28;20418;-84
2023/10/22 07:38:56;;;;;;;10.60;5.20;;;11.00;99.90;;;;;;5030248;28;20050;-84
2023/10/22 07:41:22;;;;;;;6.50;4.70;;;11.00;99.90;;;;;;5014658;28;20046;-84
2023/10/22 07:43:48;;;;;;;7.45;5.20;;;11.00;99.90;;;;;;5029053;28;20068;-84
2023/10/22 07:46:15;;;;;;;6.50;5.27;;;11.00;99.90;;;;;;5029919;28;20484;-84
2023/10/22 07:48:42;;;;;;;11.25;5.75;;;11.00;99.90;;;;;;5030096;28;20057;-84
2023/10/22 07:51:15;;;;;;;12.20;6.60;;;10.60;99.90;;;;;;5029823;28;20132;-84
2023/10/22 07:53:42;;;;;;;11.23;7.32;;;11.00;99.90;;;;;;5014858;28;20060;-84
2023/10/22 07:56:09;;;;;;;10.70;7.35;;;11.10;99.90;;;;;;5046387;28;20042;-84
2023/10/22 07:58:35;;;;;;;12.57;7.05;;;11.10;99.90;;;;;;5013704;28;20085;-84
2023/10/22 08:01:02;;;;;;;;;;;11.10;99.90;;;;;;5013843;28;20056;-84
2023/10/22 08:03:31;;;;;;;9.02;6.13;;;11.10;99.90;;;;;;5030198;28;20326;-84
2023/10/22 08:06:01;;;;;;;11.73;6.13;;;11.10;99.90;;;;;;5029743;28;20072;-84
2023/10/22 08:08:27;;;;;;;6.32;5.18;;;11.10;99.90;;;;;;5014193;28;20054;-84
2023/10/22 08:11:00;;;;;;;6.53;5.40;;;11.20;99.90;;;;;;5046781;28;20495;-84
2023/10/22 08:13:26;;;;;;;12.95;5.25;;;11.20;99.90;;;;;;5014166;28;20504;-84
2023/10/22 08:15:53;;;;;;;5.25;4.65;;;11.20;99.90;;;;;;5029750;28;20054;-84
2023/10/22 08:18:19;;;;;;;;;;;11.30;99.90;;;;;;5030080;28;20144;-84
2023/10/22 08:20:44;;;;;;;7.85;4.82;;;11.20;99.90;;;;;;5030027;28;19965;-84
2023/10/22 08:23:10;;;;;;;5.90;4.80;;;11.30;99.90;;;;;;5013031;28;20041;-84
2023/10/22 08:25:36;;;;;;;9.07;4.80;;;11.30;99.90;;;;;;5013289;28;20396;-84
2023/10/22 08:28:04;;;;;;;9.07;4.97;;;11.40;99.90;;;;;;5029490;28;20077;-84
2023/10/22 08:30:30;;;;;;;8.40;4.55;;;11.30;99.90;;;;;;5046008;28;20388;-84
2023/10/22 08:32:56;;;;;;;8.93;3.87;;;11.40;99.90;;;;;;5014100;28;20056;-84
2023/10/22 08:35:23;;;;;;;8.57;4.43;;;11.40;99.90;;;;;;5013809;28;20046;-84
2023/10/22 08:37:48;;;;;;;6.15;4.53;;;11.40;99.90;;;;;;5013968;28;20057;-84
2023/10/22 08:40:14;;;;;;;7.97;4.00;;;11.50;99.90;;;;;;5013812;28;20412;-84
2023/10/22 08:42:40;;;;;;;6.45;4.22;;;11.50;99.90;;;;;;5013879;28;20042;-83
2023/10/22 08:45:10;;;;;;;6.60;3.63;;;11.60;99.90;;;;;;5013908;28;20052;-84
2023/10/22 08:47:36;;;;;;;6.90;3.65;;;11.60;99.90;;;;;;5014039;28;20115;-84
2023/10/22 08:50:02;;;;;;;9.73;4.07;;;11.60;99.90;;;;;;5045288;28;20388;-84
2023/10/22 08:52:28;;;;;;;6.28;3.30;;;11.70;99.90;;;;;;5013634;28;20044;-84
2023/10/22 08:54:54;;;;;;;10.13;3.90;;;11.70;99.90;;;;;;5045728;28;20476;-84
2023/10/22 08:57:21;;;;;;;13.93;3.97;;;11.80;99.90;;;;;;5028984;28;20054;-85
2023/10/22 08:59:48;;;;;;;9.50;4.07;;;11.90;99.90;;;;;;5029188;28;20103;-84
2023/10/22 09:02:26;;;;;;;7.05;3.65;;;12.00;99.90;;;;;;5028579;28;20050;-84
2023/10/22 09:04:53;;;;;;;5.40;3.22;;;12.10;99.90;;;;;;5029241;28;20455;-84
2023/10/22 09:07:19;;;;;;;;;;;12.10;99.90;;;;;;5013706;28;20042;-84
2023/10/22 09:09:44;;;;;;;5.88;3.40;;;12.30;99.90;;;;;;5045648;28;19927;-84
2023/10/22 09:12:12;;;;;;;4.03;3.33;;;12.50;99.90;;;;;;5028991;28;20042;-84
2023/10/22 09:14:41;;;;;;;4.88;2.67;;;12.60;99.90;;;;;;5013503;28;20054;-84
2023/10/22 09:17:19;;;;;;;5.63;2.88;;;12.70;99.90;;;;;;5045540;28;20049;-84
2023/10/22 09:19:47;;;;;;;9.32;3.30;;;12.70;99.90;;;;;;5028934;28;20385;-84
2023/10/22 09:22:24;;;;;;;4.28;2.67;;;12.80;99.90;;;;;;5028651;28;20376;-84
2023/10/22 09:24:53;;;;;;;6.47;3.17;;;12.80;99.90;;;;;;5045550;28;20432;-84
2023/10/22 09:27:26;;;;;;;7.03;2.33;;;12.80;99.90;;;;;;5013157;28;20052;-84
2023/10/22 09:29:53;;;;;;;4.65;2.90;;;12.90;99.90;;;;;;5013494;28;20050;-87
2023/10/22 09:32:19;;;;;;;;;;;12.90;99.90;;;;;;5045583;28;20049;-85
2023/10/22 09:34:45;;;;;;;5.40;2.35;;;12.80;99.90;;;;;;5028842;28;19928;-84
2023/10/22 09:37:11;;;;;;;4.78;2.40;;;12.90;99.90;;;;;;5013295;28;20129;-84
2023/10/22 09:39:44;;;;;;;3.67;2.10;;;12.90;99.90;;;;;;5044787;28;20046;-84
2023/10/22 09:42:12;;;;;;;7.13;2.00;;;13.00;99.90;;;;;;5028297;28;20073;-84
2023/10/22 09:44:40;;;;;;;5.10;2.15;;;13.00;99.90;;;;;;5044994;28;20049;-84
2023/10/22 09:47:08;;;;;;;5.65;2.22;;;13.10;99.90;;;;;;5028232;28;20046;-85
2023/10/22 09:49:35;;;;;;;6.30;3.00;;;13.10;99.90;;;;;;5044578;28;20061;-85
2023/10/22 09:52:03;;;;;;;5.82;2.03;;;13.20;99.90;;;;;;5013194;28;20053;-85
2023/10/22 09:54:40;;;;;;;3.70;1.92;;;13.30;99.90;;;;;;5044947;28;20053;-85
2023/10/22 09:57:17;;;;;;;5.72;1.90;;;13.40;99.90;;;;;;5028398;28;20164;-84
2023/10/22 09:59:44;;;;;;;;;;;13.50;99.90;;;;;;5045416;28;20525;-84
2023/10/22 10:02:15;;;;;;;6.60;1.75;;;13.10;94.10;;;;;;5028317;28;19921;-84
2023/10/22 10:04:43;;;;;;;4.95;1.40;;;13.70;99.90;;;;;;5028114;28;20042;-85
2023/10/22 10:07:09;;;;;;;4.97;1.63;;;13.80;99.90;;;;;;5015548;28;20046;-85
2023/10/22 10:09:36;;;;;;;2.45;1.30;;;13.90;99.90;;;;;;5015490;28;20049;-85
2023/10/22 10:12:03;;;;;;;;;;;13.90;99.90;;;;;;5016115;28;20476;-84
2023/10/22 10:14:35;;;;;;;;;;;14.00;78.10;;;;;;5032264;28;19928;-85
2023/10/22 10:17:05;;;;;;;3.17;1.20;;;14.10;81.70;;;;;;5048746;28;19943;-85
2023/10/22 10:19:33;;;;;;;3.35;1.63;;;14.10;99.90;;;;;;5048567;28;20084;-85
2023/10/22 10:21:59;;;;;;;2.90;1.08;;;13.60;99.90;;;;;;5048342;28;20368;-85
2023/10/22 10:24:38;;;;;;;3.60;1.67;;;14.20;99.90;;;;;;5031533;28;20057;-86
2023/10/22 10:27:07;;;;;;;3.47;1.50;;;14.10;99.90;;;;;;5048666;28;20141;-84
2023/10/22 10:29:35;;;;;;;3.13;1.13;;;14.10;99.90;;;;;;5031657;28;20053;-85
2023/10/22 10:32:13;;;;;;;4.13;1.10;;;14.10;99.90;;;;;;5031907;28;20042;-85
2023/10/22 10:34:41;;;;;;;1.67;1.10;;;13.70;95.10;;;;;;5015110;28;20478;-85
2023/10/22 10:37:21;;;;;;;3.33;0.93;;;13.60;99.90;;;;;;5031479;28;20054;-85
2023/10/22 10:39:52;;;;;;;6.07;1.20;;;13.80;92.80;;;;;;5016010;28;20096;-85
2023/10/22 10:42:30;;;;;;;4.60;1.10;;;13.60;95.40;;;;;;5016072;28;20056;-85
2023/10/22 10:45:00;;;;;;;4.13;0.90;;;13.40;82.10;;;;;;5016268;28;20396;-86
2023/10/22 10:47:29;;;;;;;1.05;0.88;;;13.20;97.30;;;;;;5048058;28;20082;-87
2023/10/22 10:50:08;;;;;;;1.92;1.00;;;13.00;97.80;;;;;;5047770;28;20050;-85
2023/10/22 10:52:42;;;;;;;3.20;1.10;;;12.80;94.50;;;;;;5031143;28;20050;-85
2023/10/22 10:55:09;;;;;;;3.40;1.30;;;12.70;91.50;;;;;;5014392;28;20053;-85
2023/10/22 10:57:36;;;;;;;2.90;1.05;;;12.60;99.90;;;;;;5014693;28;20136;-85
2023/10/22 11:00:04;;;;;;;1.85;1.38;;;11.70;99.20;;;;;;5047886;28;20074;-85
2023/10/22 11:02:38;;;;;;;2.20;0.90;;;12.40;99.90;;;;;;5013995;28;20495;-85
2023/10/22 11:05:07;;;;;;;3.60;1.38;;;12.40;99.90;;;;;;5031424;28;20050;-85
2023/10/22 11:07:33;;;;;;;2.67;1.80;;;12.30;99.90;;;;;;5030589;28;20050;-85
2023/10/22 11:10:06;;;;;;;3.47;0.85;;;12.60;99.90;;;;;;5030875;28;20077;-85
2023/10/22 11:12:31;;;;;;;2.80;1.20;;;13.00;99.90;;;;;;5015465;28;20112;-85
2023/10/22 11:14:57;;;;;;;3.03;0.90;;;13.50;99.90;;;;;;5031096;28;20042;-85
2023/10/22 11:17:26;;;;;;;3.20;1.80;;;13.90;99.80;;;;;;5046820;28;20041;-84
2023/10/22 11:19:53;;;;;;;2.83;1.30;;;14.40;97.30;;;;;;5030846;28;20054;-85
2023/10/22 11:22:20;;;;;;;3.65;1.63;;;14.90;98.90;;;;;;5046840;28;20041;-85
2023/10/22 11:24:49;;;;;;;4.88;1.52;;;15.20;95.00;;;;;;5030686;28;20092;-85
2023/10/22 11:27:16;;;;;;;2.88;1.15;;;15.40;90.60;;;;;;5015619;28;20092;-85
2023/10/22 11:29:44;;;;;;;2.05;1.05;;;15.60;82.30;;;;;;5015091;28;20129;-85
2023/10/22 11:32:20;;;;;;;13.45;2.63;;;15.40;80.10;;;;;;5047359;28;20057;-85
2023/10/22 11:34:52;;;;;;;2.33;1.52;;;15.30;58.80;;;;;;5030544;28;20125;-85
2023/10/22 11:37:30;;;;;;;3.13;1.63;;;15.30;85.70;;;;;;5047327;28;20050;-85
2023/10/22 11:39:59;;;;;;;2.85;1.30;;;15.40;37.40;;;;;;5030302;28;20053;-85
2023/10/22 11:42:34;;;;;;;3.78;1.75;;;15.60;83.80;;;;;;5046987;28;20146;-85
2023/10/22 11:44:59;;;;;;;2.83;1.52;;;15.80;41.40;;;;;;5030539;28;20053;-85
2023/10/22 11:47:30;;;;;;;3.07;2.10;;;16.00;85.60;;;;;;5014150;28;20483;-85
2023/10/22 11:50:00;;;;;;;2.95;1.38;;;16.20;81.50;;;;;;5046642;28;20301;-86
2023/10/22 11:52:39;;;;;;;5.28;1.38;;;16.40;84.70;;;;;;5014000;28;20111;-85
2023/10/22 11:55:09;;;;;;;6.00;1.63;;;16.40;42.60;;;;;;5046992;28;20529;-86
2023/10/22 11:57:38;;;;;;;2.05;1.15;;;16.40;63.10;;;;;;5014206;28;20483;-86
2023/10/22 12:00:14;;;;;;;2.47;1.52;;;15.90;74.20;;;;;;5030241;28;20053;-85
2023/10/22 12:02:40;;;;;;;4.47;1.60;;;16.50;49.70;;;;;;5014460;28;20053;-85
2023/10/22 12:05:06;;;;;;;2.67;1.52;;;16.50;70.20;;;;;;5029816;28;20046;-85
2023/10/22 12:07:32;;;;;;;4.47;1.33;;;16.30;67.70;;;;;;5046759;28;20096;-85
2023/10/22 12:09:58;;;;;;;1.27;0.98;;;16.10;69.70;;;;;;5029828;28;20078;-86
2023/10/22 12:12:29;;;;;;;1.83;0.88;;;15.80;68.70;;;;;;5029811;28;20061;-85
2023/10/22 12:14:56;;;;;;;2.92;0.80;;;15.40;50.60;;;;;;5013198;28;20133;-86
2023/10/22 12:17:22;;;;;;;0.90;0.60;;;15.00;54.40;;;;;;5046642;28;20064;-85
2023/10/22 12:19:49;;;;;;;0.90;0.50;;;14.80;50.30;;;;;;5013262;28;20054;-85
2023/10/22 12:22:16;;;;;;;2.92;0.80;;;14.50;51.10;;;;;;5013092;28;20119;-85
2023/10/22 12:24:42;;;;;;;1.95;0.50;;;13.50;55.00;;;;;;5046381;28;20155;-86
2023/10/22 12:27:08;;;;;;;0.80;0.68;;;14.10;52.90;;;;;;5029705;28;20134;-85
2023/10/22 12:29:34;;;;;;;0.75;0.57;;;13.90;60.30;;;;;;5045846;28;20531;-85
2023/10/22 12:32:00;;;;;;;0.87;0.47;;;13.70;63.60;;;;;;5029259;28;20311;-85
2023/10/22 12:34:27;;;;;;;0.75;0.45;;;13.70;64.10;;;;;;5029764;28;20054;-85
2023/10/22 12:36:55;;;;;;;0.65;0.50;;;13.60;66.10;;;;;;5012662;28;20041;-85
2023/10/22 12:39:22;;;;;;;1.40;0.50;;;13.50;63.40;;;;;;5014085;28;20046;-85
2023/10/22 12:41:47;;;;;;;0.93;0.60;;;13.40;65.60;;;;;;5028823;28;20400;-85
2023/10/22 12:44:13;;;;;;;1.80;0.70;;;13.30;68.40;;;;;;5012824;28;20046;-85
2023/10/22 12:46:39;;;;;;;1.05;0.95;;;14.20;72.80;;;;;;5013971;28;20042;-85
2023/10/22 12:49:05;;;;;;;2.73;1.23;;;13.20;73.70;;;;;;5013554;28;20053;-85
2023/10/22 12:51:31;;;;;;;2.85;0.77;;;13.20;74.30;;;;;;5029428;28;20054;-85